PWSweather.com
Personal Weather Stations
Station Observations
THACHERISL
Rockport, MA 01966

Rockport, MA 01966

Lat: 42.636864, Lon: -70.575403

Elevation: 20

Station Type: Davis Vantage Pro 2

https://thacher-island-weather.keneli.org

Latest ConditionsUpdated 2:30:00 PM EST Tuesday, Nov 12, 2019
Currently Today's Max Today's Min Today's Average
Temperature 35.7°F2.1°C 45.7°F7.6°C 35.7°F2.1°C 42.4°F5.8°C
Dew Point 32.5°F0.3°C 44.4°F6.9°C 32.5°F0.3°C 40.8°F4.9°C
Winds 14.0 mph WNW22.5 kmh WNW 23.0 mph -37.0 kmh - - 13.6 mph 21.9 kmh
Wind Gusts 25.0 mph40.2 kmh 30.0 mph48.3 kmh - -
Humidity 88% 95% 88% 94%
Pressure 29.69 in1005.4 mb 29.83 in1010.2 mb 29.58 in1001.7 mb -
Precipitation - 0.03 in0.8 mm - -
Hour Temp Dew Point Humidity Winds Wind Gusts Pressure Precip Precip Rate Daily Precip Total
02:30 PM 35.7°F2.1°C 32.5°F0.3°C 88% 14.0 mph WNW22.5 kmh WNW 25.0 mph40.2 kmh 29.69 in1005.4 mb 0.01 in0.3 mm 0.00 in0.0 mm 0.03 in0.8 mm
02:25 PM 35.7°F2.1°C 32.5°F0.3°C 88% 14.0 mph WNW22.5 kmh WNW 21.0 mph33.8 kmh 29.69 in1005.4 mb 0.01 in0.3 mm 0.00 in0.0 mm 0.03 in0.8 mm
02:20 PM 35.9°F2.2°C 33.0°F0.6°C 89% 14.0 mph WNW22.5 kmh WNW 21.0 mph33.8 kmh 29.69 in1005.4 mb 0.01 in0.3 mm 0.00 in0.0 mm 0.03 in0.8 mm
02:15 PM 35.8°F2.1°C 33.2°F0.7°C 90% 13.0 mph WNW20.9 kmh WNW 21.0 mph33.8 kmh 29.68 in1005.1 mb 0.01 in0.3 mm 0.00 in0.0 mm 0.03 in0.8 mm
02:10 PM 35.7°F2.1°C 33.3°F0.7°C 91% 12.0 mph WNW19.3 kmh WNW 17.0 mph27.4 kmh 29.68 in1005.1 mb 0.01 in0.3 mm 0.00 in0.0 mm 0.03 in0.8 mm
02:05 PM 35.9°F2.2°C 33.5°F0.8°C 91% 11.0 mph WNW17.7 kmh WNW 17.0 mph27.4 kmh 29.68 in1005.1 mb 0.01 in0.3 mm 0.00 in0.0 mm 0.03 in0.8 mm
02:00 PM 35.9°F2.2°C 33.8°F1.0°C 92% 11.0 mph NW17.7 kmh NW 18.0 mph29.0 kmh 29.68 in1005.1 mb 0.01 in0.3 mm 0.00 in0.0 mm 0.03 in0.8 mm
01:55 PM 35.9°F2.2°C 33.8°F1.0°C 92% 11.0 mph WNW17.7 kmh WNW 16.0 mph25.7 kmh 29.67 in1004.7 mb 0.01 in0.3 mm 0.00 in0.0 mm 0.03 in0.8 mm
01:50 PM 35.8°F2.1°C 33.4°F0.8°C 91% 12.0 mph WNW19.3 kmh WNW 20.0 mph32.2 kmh 29.67 in1004.7 mb 0.01 in0.3 mm 0.00 in0.0 mm 0.03 in0.8 mm
01:45 PM 35.8°F2.1°C 33.4°F0.8°C 91% 16.0 mph WNW25.7 kmh WNW 25.0 mph40.2 kmh 29.67 in1004.7 mb 0.01 in0.3 mm 0.00 in0.0 mm 0.03 in0.8 mm
01:40 PM 36.4°F2.4°C 34.0°F1.1°C 91% 15.0 mph WNW24.1 kmh WNW 23.0 mph37.0 kmh 29.66 in1004.4 mb 0.01 in0.3 mm 0.00 in0.0 mm 0.03 in0.8 mm
01:35 PM 36.8°F2.7°C 34.7°F1.5°C 92% 15.0 mph WNW24.1 kmh WNW 25.0 mph40.2 kmh 29.66 in1004.4 mb 0.02 in0.5 mm 0.12 in3.0 mm 0.03 in0.8 mm
01:30 PM 37.5°F3.1°C 35.4°F1.9°C 92% 15.0 mph NW24.1 kmh NW 25.0 mph40.2 kmh 29.66 in1004.4 mb 0.01 in0.3 mm 0.00 in0.0 mm 0.02 in0.5 mm
01:25 PM 37.8°F3.2°C 35.7°F2.1°C 92% 16.0 mph WNW25.7 kmh WNW 25.0 mph40.2 kmh 29.66 in1004.4 mb 0.01 in0.3 mm 0.00 in0.0 mm 0.02 in0.5 mm
01:20 PM 38.4°F3.6°C 36.3°F2.4°C 92% 13.0 mph WNW20.9 kmh WNW 19.0 mph30.6 kmh 29.66 in1004.4 mb 0.01 in0.3 mm 0.00 in0.0 mm 0.02 in0.5 mm
01:15 PM 38.5°F3.6°C 36.4°F2.4°C 92% 14.0 mph WNW22.5 kmh WNW 21.0 mph33.8 kmh 29.65 in1004.1 mb 0.01 in0.3 mm 0.00 in0.0 mm 0.02 in0.5 mm
01:10 PM 38.6°F3.7°C 36.5°F2.5°C 92% 14.0 mph WNW22.5 kmh WNW 22.0 mph35.4 kmh 29.65 in1004.1 mb 0.01 in0.3 mm 0.00 in0.0 mm 0.02 in0.5 mm
01:05 PM 38.9°F3.8°C 37.1°F2.8°C 93% 12.0 mph WNW19.3 kmh WNW 19.0 mph30.6 kmh 29.65 in1004.1 mb 0.01 in0.3 mm 0.00 in0.0 mm 0.02 in0.5 mm
01:00 PM 39.1°F3.9°C 37.2°F2.9°C 93% 11.0 mph NW17.7 kmh NW 18.0 mph29.0 kmh 29.65 in1004.1 mb 0.01 in0.3 mm 0.00 in0.0 mm 0.02 in0.5 mm
12:55 PM 38.9°F3.8°C 37.1°F2.8°C 93% 14.0 mph NW22.5 kmh NW 22.0 mph35.4 kmh 29.64 in1003.7 mb 0.01 in0.3 mm 0.00 in0.0 mm 0.02 in0.5 mm
12:50 PM 39.1°F3.9°C 37.5°F3.1°C 94% 14.0 mph NW22.5 kmh NW 22.0 mph35.4 kmh 29.64 in1003.7 mb 0.01 in0.3 mm 0.00 in0.0 mm 0.02 in0.5 mm
12:45 PM 39.0°F3.9°C 37.4°F3.0°C 94% 13.0 mph NW20.9 kmh NW 18.0 mph29.0 kmh 29.63 in1003.4 mb 0.01 in0.3 mm 0.00 in0.0 mm 0.02 in0.5 mm
12:40 PM 38.9°F3.8°C 37.3°F2.9°C 94% 12.0 mph NW19.3 kmh NW 18.0 mph29.0 kmh 29.64 in1003.7 mb 0.01 in0.3 mm 0.12 in3.0 mm 0.02 in0.5 mm
12:35 PM 38.6°F3.7°C 37.0°F2.8°C 94% 14.0 mph NW22.5 kmh NW 20.0 mph32.2 kmh 29.64 in1003.7 mb 0.00 in0.0 mm 0.00 in0.0 mm 0.01 in0.3 mm
12:30 PM 38.8°F3.8°C 37.2°F2.9°C 94% 9.0 mph NW14.5 kmh NW 17.0 mph27.4 kmh 29.64 in1003.7 mb 0.00 in0.0 mm 0.00 in0.0 mm 0.01 in0.3 mm
12:25 PM 38.6°F3.7°C 37.0°F2.8°C 94% 13.0 mph NW20.9 kmh NW 19.0 mph30.6 kmh 29.64 in1003.7 mb 0.00 in0.0 mm 0.00 in0.0 mm 0.01 in0.3 mm
12:20 PM 38.7°F3.7°C 37.1°F2.8°C 94% 11.0 mph NW17.7 kmh NW 15.0 mph24.1 kmh 29.63 in1003.4 mb 0.00 in0.0 mm 0.00 in0.0 mm 0.01 in0.3 mm
12:15 PM 38.8°F3.8°C 37.2°F2.9°C 94% 13.0 mph NNW20.9 kmh NNW 17.0 mph27.4 kmh 29.63 in1003.4 mb 0.00 in0.0 mm 0.00 in0.0 mm 0.01 in0.3 mm
12:10 PM 38.9°F3.8°C 37.6°F3.1°C 95% 12.0 mph NNW19.3 kmh NNW 18.0 mph29.0 kmh 29.63 in1003.4 mb 0.00 in0.0 mm 0.00 in0.0 mm 0.01 in0.3 mm
12:05 PM 38.9°F3.8°C 37.6°F3.1°C 95% 13.0 mph NNW20.9 kmh NNW 18.0 mph29.0 kmh 29.63 in1003.4 mb 0.00 in0.0 mm 0.00 in0.0 mm 0.01 in0.3 mm
12:00 PM 38.9°F3.8°C 37.6°F3.1°C 95% 12.0 mph NNW19.3 kmh NNW 17.0 mph27.4 kmh 29.62 in1003.0 mb 0.00 in0.0 mm 0.00 in0.0 mm 0.01 in0.3 mm
11:55 AM 39.0°F3.9°C 37.7°F3.2°C 95% 10.0 mph NW16.1 kmh NW 16.0 mph25.7 kmh 29.63 in1003.4 mb 0.00 in0.0 mm 0.00 in0.0 mm 0.01 in0.3 mm
11:50 AM 39.0°F3.9°C 37.7°F3.2°C 95% 7.0 mph WNW11.3 kmh WNW 12.0 mph19.3 kmh 29.63 in1003.4 mb 0.00 in0.0 mm 0.00 in0.0 mm 0.01 in0.3 mm
11:45 AM 38.8°F3.8°C 37.5°F3.1°C 95% 5.0 mph W8.0 kmh W 9.0 mph14.5 kmh 29.64 in1003.7 mb 0.00 in0.0 mm 0.00 in0.0 mm 0.01 in0.3 mm
11:40 AM 38.6°F3.7°C 37.3°F2.9°C 95% 4.0 mph WNW6.4 kmh WNW 9.0 mph14.5 kmh 29.63 in1003.4 mb 0.00 in0.0 mm 0.00 in0.0 mm 0.01 in0.3 mm
11:35 AM 38.5°F3.6°C 37.2°F2.9°C 95% 4.0 mph NW6.4 kmh NW 10.0 mph16.1 kmh 29.63 in1003.4 mb 0.00 in0.0 mm 0.00 in0.0 mm 0.01 in0.3 mm
11:30 AM 38.3°F3.5°C 37.0°F2.8°C 95% 8.0 mph NW12.9 kmh NW 12.0 mph19.3 kmh 29.64 in1003.7 mb 0.01 in0.3 mm 0.00 in0.0 mm 0.01 in0.3 mm
11:25 AM 38.2°F3.4°C 36.9°F2.7°C 95% 9.0 mph NNW14.5 kmh NNW 12.0 mph19.3 kmh 29.62 in1003.0 mb 0.01 in0.3 mm 0.00 in0.0 mm 0.01 in0.3 mm
11:20 AM 38.2°F3.4°C 36.9°F2.7°C 95% 8.0 mph NNW12.9 kmh NNW 14.0 mph22.5 kmh 29.63 in1003.4 mb 0.01 in0.3 mm 0.00 in0.0 mm 0.01 in0.3 mm
11:15 AM 37.9°F3.3°C 36.6°F2.6°C 95% 13.0 mph NNW20.9 kmh NNW 17.0 mph27.4 kmh 29.62 in1003.0 mb 0.01 in0.3 mm 0.00 in0.0 mm 0.01 in0.3 mm
11:10 AM 38.0°F3.3°C 36.7°F2.6°C 95% 14.0 mph NNW22.5 kmh NNW 18.0 mph29.0 kmh 29.62 in1003.0 mb 0.01 in0.3 mm 0.00 in0.0 mm 0.01 in0.3 mm
11:05 AM 38.1°F3.4°C 36.5°F2.5°C 94% 15.0 mph NNW24.1 kmh NNW 20.0 mph32.2 kmh 29.62 in1003.0 mb 0.01 in0.3 mm 0.00 in0.0 mm 0.01 in0.3 mm
11:00 AM 38.1°F3.4°C 36.5°F2.5°C 94% 18.0 mph NNW29.0 kmh NNW 26.0 mph41.8 kmh 29.62 in1003.0 mb 0.01 in0.3 mm 0.00 in0.0 mm 0.01 in0.3 mm
10:55 AM 38.6°F3.7°C 37.0°F2.8°C 94% 22.0 mph NNW35.4 kmh NNW 27.0 mph43.5 kmh 29.61 in1002.7 mb 0.01 in0.3 mm 0.00 in0.0 mm 0.01 in0.3 mm
10:50 AM 38.7°F3.7°C 37.1°F2.8°C 94% 20.0 mph NNW32.2 kmh NNW 25.0 mph40.2 kmh 29.62 in1003.0 mb 0.01 in0.3 mm 0.00 in0.0 mm 0.01 in0.3 mm
10:45 AM 39.3°F4.1°C 37.7°F3.2°C 94% 23.0 mph NNW37.0 kmh NNW 29.0 mph46.7 kmh 29.63 in1003.4 mb 0.01 in0.3 mm 0.00 in0.0 mm 0.01 in0.3 mm
10:40 AM 40.1°F4.5°C 38.5°F3.6°C 94% 23.0 mph NNW37.0 kmh NNW 27.0 mph43.5 kmh 29.62 in1003.0 mb 0.01 in0.3 mm 0.00 in0.0 mm 0.01 in0.3 mm
10:35 AM 42.0°F5.6°C 40.1°F4.5°C 93% 23.0 mph NNW37.0 kmh NNW 28.0 mph45.1 kmh 29.62 in1003.0 mb 0.01 in0.3 mm 0.12 in3.0 mm 0.01 in0.3 mm
10:30 AM 44.5°F6.9°C 43.2°F6.2°C 95% 18.0 mph NNW29.0 kmh NNW 24.0 mph38.6 kmh 29.61 in1002.7 mb 0.00 in0.0 mm 0.00 in0.0 mm 0.00 in0.0 mm
10:25 AM 45.1°F7.3°C 43.8°F6.6°C 95% 13.0 mph NNW20.9 kmh NNW 15.0 mph24.1 kmh 29.61 in1002.7 mb 0.00 in0.0 mm 0.00 in0.0 mm 0.00 in0.0 mm
10:20 AM 45.2°F7.3°C 43.9°F6.6°C 95% 13.0 mph NNW20.9 kmh NNW 15.0 mph24.1 kmh 29.61 in1002.7 mb 0.00 in0.0 mm 0.00 in0.0 mm 0.00 in0.0 mm
10:15 AM 45.4°F7.4°C 44.1°F6.7°C 95% 11.0 mph NNW17.7 kmh NNW 14.0 mph22.5 kmh 29.60 in1002.4 mb 0.00 in0.0 mm 0.00 in0.0 mm 0.00 in0.0 mm
10:10 AM 45.4°F7.4°C 44.1°F6.7°C 95% 10.0 mph NNW16.1 kmh NNW 12.0 mph19.3 kmh 29.60 in1002.4 mb 0.00 in0.0 mm 0.00 in0.0 mm 0.00 in0.0 mm
10:05 AM 45.4°F7.4°C 44.1°F6.7°C 95% 7.0 mph NNW11.3 kmh NNW 10.0 mph16.1 kmh 29.60 in1002.4 mb 0.00 in0.0 mm 0.00 in0.0 mm 0.00 in0.0 mm
10:00 AM 45.5°F7.5°C 44.2°F6.8°C 95% 6.0 mph NNW9.7 kmh NNW 9.0 mph14.5 kmh 29.61 in1002.7 mb 0.00 in0.0 mm 0.00 in0.0 mm 0.00 in0.0 mm
09:55 AM 45.4°F7.4°C 44.1°F6.7°C 95% 4.0 mph NNW6.4 kmh NNW 6.0 mph9.7 kmh 29.61 in1002.7 mb 0.00 in0.0 mm 0.00 in0.0 mm 0.00 in0.0 mm
09:50 AM 45.2°F7.3°C 43.9°F6.6°C 95% 4.0 mph 6.4 kmh 7.0 mph11.3 kmh 29.61 in1002.7 mb 0.00 in0.0 mm 0.00 in0.0 mm 0.00 in0.0 mm
09:45 AM 45.1°F7.3°C 43.8°F6.6°C 95% 6.0 mph 9.7 kmh 9.0 mph14.5 kmh 29.61 in1002.7 mb 0.00 in0.0 mm 0.00 in0.0 mm 0.00 in0.0 mm
09:40 AM 45.1°F7.3°C 43.8°F6.6°C 95% 8.0 mph 12.9 kmh 11.0 mph17.7 kmh 29.60 in1002.4 mb 0.00 in0.0 mm 0.00 in0.0 mm 0.00 in0.0 mm
09:35 AM 45.1°F7.3°C 43.8°F6.6°C 95% 9.0 mph NNW14.5 kmh NNW 11.0 mph17.7 kmh 29.61 in1002.7 mb 0.00 in0.0 mm 0.00 in0.0 mm 0.00 in0.0 mm
09:30 AM 45.2°F7.3°C 43.9°F6.6°C 95% 8.0 mph NNW12.9 kmh NNW 11.0 mph17.7 kmh 29.61 in1002.7 mb 0.00 in0.0 mm 0.00 in0.0 mm 0.00 in0.0 mm
09:25 AM 45.0°F7.2°C 43.7°F6.5°C 95% 10.0 mph 16.1 kmh 12.0 mph19.3 kmh 29.58 in1001.7 mb 0.00 in0.0 mm 0.00 in0.0 mm 0.00 in0.0 mm
09:20 AM 44.9°F7.2°C 43.6°F6.4°C 95% 9.0 mph NNE14.5 kmh NNE 12.0 mph19.3 kmh 29.58 in1001.7 mb 0.00 in0.0 mm 0.00 in0.0 mm 0.00 in0.0 mm
09:15 AM 44.9°F7.2°C 43.6°F6.4°C 95% 10.0 mph 16.1 kmh 13.0 mph20.9 kmh 29.59 in1002.0 mb 0.00 in0.0 mm 0.00 in0.0 mm 0.00 in0.0 mm
09:10 AM 44.8°F7.1°C 43.5°F6.4°C 95% 10.0 mph 16.1 kmh 14.0 mph22.5 kmh 29.60 in1002.4 mb 0.00 in0.0 mm 0.00 in0.0 mm 0.00 in0.0 mm
09:05 AM 45.0°F7.2°C 43.7°F6.5°C 95% 12.0 mph 19.3 kmh 15.0 mph24.1 kmh 29.60 in1002.4 mb 0.00 in0.0 mm 0.00 in0.0 mm 0.00 in0.0 mm
09:00 AM 45.0°F7.2°C 43.7°F6.5°C 95% 10.0 mph 16.1 kmh 13.0 mph20.9 kmh 29.61 in1002.7 mb 0.00 in0.0 mm 0.00 in0.0 mm 0.00 in0.0 mm
08:55 AM 45.0°F7.2°C 43.7°F6.5°C 95% 11.0 mph 17.7 kmh 14.0 mph22.5 kmh 29.61 in1002.7 mb 0.00 in0.0 mm 0.00 in0.0 mm 0.00 in0.0 mm
08:50 AM 45.0°F7.2°C 43.7°F6.5°C 95% 12.0 mph 19.3 kmh 14.0 mph22.5 kmh 29.61 in1002.7 mb 0.00 in0.0 mm 0.00 in0.0 mm 0.00 in0.0 mm
08:45 AM 45.2°F7.3°C 43.9°F6.6°C 95% 11.0 mph 17.7 kmh 14.0 mph22.5 kmh 29.61 in1002.7 mb 0.00 in0.0 mm 0.00 in0.0 mm 0.00 in0.0 mm
08:40 AM 45.2°F7.3°C 43.9°F6.6°C 95% 10.0 mph 16.1 kmh 14.0 mph22.5 kmh 29.61 in1002.7 mb 0.00 in0.0 mm 0.00 in0.0 mm 0.00 in0.0 mm
08:35 AM 45.3°F7.4°C 44.0°F6.7°C 95% 12.0 mph 19.3 kmh 16.0 mph25.7 kmh 29.62 in1003.0 mb 0.00 in0.0 mm 0.00 in0.0 mm 0.00 in0.0 mm
08:30 AM 45.4°F7.4°C 44.1°F6.7°C 95% 11.0 mph NNW17.7 kmh NNW 14.0 mph22.5 kmh 29.62 in1003.0 mb 0.00 in0.0 mm 0.00 in0.0 mm 0.00 in0.0 mm
08:25 AM 45.6°F7.6°C 44.3°F6.8°C 95% 9.0 mph 14.5 kmh 13.0 mph20.9 kmh 29.62 in1003.0 mb 0.00 in0.0 mm 0.00 in0.0 mm 0.00 in0.0 mm
08:20 AM 45.6°F7.6°C 44.3°F6.8°C 95% 10.0 mph 16.1 kmh 12.0 mph19.3 kmh 29.62 in1003.0 mb 0.00 in0.0 mm 0.00 in0.0 mm 0.00 in0.0 mm
08:15 AM 45.6°F7.6°C 44.3°F6.8°C 95% 11.0 mph 17.7 kmh 14.0 mph22.5 kmh 29.61 in1002.7 mb 0.00 in0.0 mm 0.00 in0.0 mm 0.00 in0.0 mm
08:10 AM 45.7°F7.6°C 44.4°F6.9°C 95% 9.0 mph 14.5 kmh 13.0 mph20.9 kmh 29.62 in1003.0 mb 0.00 in0.0 mm 0.00 in0.0 mm 0.00 in0.0 mm
08:05 AM 45.6°F7.6°C 44.3°F6.8°C 95% 6.0 mph NE9.7 kmh NE 9.0 mph14.5 kmh 29.62 in1003.0 mb 0.00 in0.0 mm 0.00 in0.0 mm 0.00 in0.0 mm
08:00 AM 45.3°F7.4°C 44.0°F6.7°C 95% 6.0 mph NE9.7 kmh NE 10.0 mph16.1 kmh 29.62 in1003.0 mb 0.00 in0.0 mm 0.00 in0.0 mm 0.00 in0.0 mm
07:55 AM 45.2°F7.3°C 43.9°F6.6°C 95% 6.0 mph NE9.7 kmh NE 9.0 mph14.5 kmh 29.63 in1003.4 mb 0.00 in0.0 mm 0.00 in0.0 mm 0.00 in0.0 mm
07:50 AM 45.0°F7.2°C 43.7°F6.5°C 95% 6.0 mph NE9.7 kmh NE 9.0 mph14.5 kmh 29.63 in1003.4 mb 0.00 in0.0 mm 0.00 in0.0 mm 0.00 in0.0 mm
07:45 AM 44.9°F7.2°C 43.6°F6.4°C 95% 6.0 mph NE9.7 kmh NE 10.0 mph16.1 kmh 29.63 in1003.4 mb 0.00 in0.0 mm 0.00 in0.0 mm 0.00 in0.0 mm
07:40 AM 44.8°F7.1°C 43.5°F6.4°C 95% 9.0 mph NE14.5 kmh NE 12.0 mph19.3 kmh 29.63 in1003.4 mb 0.00 in0.0 mm 0.00 in0.0 mm 0.00 in0.0 mm
07:35 AM 44.6°F7.0°C 43.3°F6.3°C 95% 11.0 mph NE17.7 kmh NE 15.0 mph24.1 kmh 29.62 in1003.0 mb 0.00 in0.0 mm 0.00 in0.0 mm 0.00 in0.0 mm
07:30 AM 44.4°F6.9°C 43.1°F6.2°C 95% 9.0 mph NE14.5 kmh NE 13.0 mph20.9 kmh 29.62 in1003.0 mb 0.00 in0.0 mm 0.00 in0.0 mm 0.00 in0.0 mm
07:25 AM 44.2°F6.8°C 42.9°F6.1°C 95% 10.0 mph NE16.1 kmh NE 14.0 mph22.5 kmh 29.62 in1003.0 mb 0.00 in0.0 mm 0.00 in0.0 mm 0.00 in0.0 mm
07:20 AM 44.1°F6.7°C 42.8°F6.0°C 95% 9.0 mph NE14.5 kmh NE 15.0 mph24.1 kmh 29.63 in1003.4 mb 0.00 in0.0 mm 0.00 in0.0 mm 0.00 in0.0 mm
07:15 AM 43.9°F6.6°C 42.6°F5.9°C 95% 13.0 mph NE20.9 kmh NE 19.0 mph30.6 kmh 29.60 in1002.4 mb 0.00 in0.0 mm 0.00 in0.0 mm 0.00 in0.0 mm
07:10 AM 43.8°F6.6°C 42.5°F5.8°C 95% 13.0 mph ENE20.9 kmh ENE 16.0 mph25.7 kmh 29.61 in1002.7 mb 0.00 in0.0 mm 0.00 in0.0 mm 0.00 in0.0 mm
07:05 AM 43.6°F6.4°C 42.3°F5.7°C 95% 12.0 mph NE19.3 kmh NE 19.0 mph30.6 kmh 29.62 in1003.0 mb 0.00 in0.0 mm 0.00 in0.0 mm 0.00 in0.0 mm
07:00 AM 43.6°F6.4°C 42.3°F5.7°C 95% 14.0 mph NNE22.5 kmh NNE 20.0 mph32.2 kmh 29.61 in1002.7 mb 0.00 in0.0 mm 0.00 in0.0 mm 0.00 in0.0 mm
06:55 AM 43.7°F6.5°C 42.4°F5.8°C 95% 11.0 mph 17.7 kmh 15.0 mph24.1 kmh 29.64 in1003.7 mb 0.00 in0.0 mm 0.00 in0.0 mm 0.00 in0.0 mm
06:50 AM 43.7°F6.5°C 42.4°F5.8°C 95% 9.0 mph NNE14.5 kmh NNE 15.0 mph24.1 kmh 29.64 in1003.7 mb 0.00 in0.0 mm 0.00 in0.0 mm 0.00 in0.0 mm
06:45 AM 43.6°F6.4°C 42.0°F5.6°C 94% 13.0 mph NE20.9 kmh NE 17.0 mph27.4 kmh 29.64 in1003.7 mb 0.00 in0.0 mm 0.00 in0.0 mm 0.00 in0.0 mm
06:40 AM 43.6°F6.4°C 42.0°F5.6°C 94% 12.0 mph NE19.3 kmh NE 16.0 mph25.7 kmh 29.63 in1003.4 mb 0.00 in0.0 mm 0.00 in0.0 mm 0.00 in0.0 mm
06:35 AM 43.5°F6.4°C 42.2°F5.7°C 95% 11.0 mph NE17.7 kmh NE 16.0 mph25.7 kmh 29.65 in1004.1 mb 0.00 in0.0 mm 0.00 in0.0 mm 0.00 in0.0 mm
06:30 AM 43.2°F6.2°C 41.6°F5.3°C 94% 15.0 mph NNE24.1 kmh NNE 19.0 mph30.6 kmh 29.62 in1003.0 mb 0.00 in0.0 mm 0.00 in0.0 mm 0.00 in0.0 mm
06:25 AM 43.3°F6.3°C 42.0°F5.6°C 95% 12.0 mph 19.3 kmh 16.0 mph25.7 kmh 29.66 in1004.4 mb 0.00 in0.0 mm 0.00 in0.0 mm 0.00 in0.0 mm
06:20 AM 43.2°F6.2°C 41.6°F5.3°C 94% 13.0 mph NNE20.9 kmh NNE 16.0 mph25.7 kmh 29.66 in1004.4 mb 0.00 in0.0 mm 0.00 in0.0 mm 0.00 in0.0 mm
06:15 AM 43.3°F6.3°C 42.0°F5.6°C 95% 14.0 mph NNE22.5 kmh NNE 17.0 mph27.4 kmh 29.66 in1004.4 mb 0.00 in0.0 mm 0.00 in0.0 mm 0.00 in0.0 mm
06:10 AM 43.1°F6.2°C 41.8°F5.4°C 95% 13.0 mph 20.9 kmh 17.0 mph27.4 kmh 29.66 in1004.4 mb 0.00 in0.0 mm 0.00 in0.0 mm 0.00 in0.0 mm
06:05 AM 43.0°F6.1°C 41.4°F5.2°C 94% 11.0 mph NNE17.7 kmh NNE 14.0 mph22.5 kmh 29.68 in1005.1 mb 0.00 in0.0 mm 0.00 in0.0 mm 0.00 in0.0 mm
06:00 AM 43.0°F6.1°C 41.7°F5.4°C 95% 11.0 mph 17.7 kmh 15.0 mph24.1 kmh 29.68 in1005.1 mb 0.00 in0.0 mm 0.00 in0.0 mm 0.00 in0.0 mm
05:55 AM 42.9°F6.1°C 41.3°F5.2°C 94% 11.0 mph NNE17.7 kmh NNE 16.0 mph25.7 kmh 29.68 in1005.1 mb 0.00 in0.0 mm 0.00 in0.0 mm 0.00 in0.0 mm
05:50 AM 43.1°F6.2°C 41.5°F5.3°C 94% 13.0 mph 20.9 kmh 20.0 mph32.2 kmh 29.68 in1005.1 mb 0.00 in0.0 mm 0.00 in0.0 mm 0.00 in0.0 mm
05:45 AM 43.2°F6.2°C 41.9°F5.5°C 95% 12.0 mph NNE19.3 kmh NNE 15.0 mph24.1 kmh 29.69 in1005.4 mb 0.00 in0.0 mm 0.00 in0.0 mm 0.00 in0.0 mm
05:40 AM 43.1°F6.2°C 41.8°F5.4°C 95% 11.0 mph NNE17.7 kmh NNE 16.0 mph25.7 kmh 29.68 in1005.1 mb 0.00 in0.0 mm 0.00 in0.0 mm 0.00 in0.0 mm
05:35 AM 42.9°F6.1°C 41.3°F5.2°C 94% 12.0 mph NE19.3 kmh NE 17.0 mph27.4 kmh 29.67 in1004.7 mb 0.00 in0.0 mm 0.00 in0.0 mm 0.00 in0.0 mm
05:30 AM 42.7°F5.9°C 41.1°F5.1°C 94% 11.0 mph NNE17.7 kmh NNE 16.0 mph25.7 kmh 29.67 in1004.7 mb 0.00 in0.0 mm 0.00 in0.0 mm 0.00 in0.0 mm
05:25 AM 42.7°F5.9°C 41.1°F5.1°C 94% 11.0 mph NE17.7 kmh NE 16.0 mph25.7 kmh 29.68 in1005.1 mb 0.00 in0.0 mm 0.00 in0.0 mm 0.00 in0.0 mm
05:20 AM 42.5°F5.8°C 40.9°F4.9°C 94% 13.0 mph NE20.9 kmh NE 19.0 mph30.6 kmh 29.67 in1004.7 mb 0.00 in0.0 mm 0.00 in0.0 mm 0.00 in0.0 mm
05:15 AM 42.7°F5.9°C 41.1°F5.1°C 94% 15.0 mph NNE24.1 kmh NNE 20.0 mph32.2 kmh 29.65 in1004.1 mb 0.00 in0.0 mm 0.00 in0.0 mm 0.00 in0.0 mm
05:10 AM 42.8°F6.0°C 41.2°F5.1°C 94% 17.0 mph NNE27.4 kmh NNE 22.0 mph35.4 kmh 29.66 in1004.4 mb 0.00 in0.0 mm 0.00 in0.0 mm 0.00 in0.0 mm
05:05 AM 42.9°F6.1°C 41.3°F5.2°C 94% 15.0 mph NNE24.1 kmh NNE 22.0 mph35.4 kmh 29.67 in1004.7 mb 0.00 in0.0 mm 0.00 in0.0 mm 0.00 in0.0 mm
05:00 AM 43.2°F6.2°C 41.6°F5.3°C 94% 17.0 mph 27.4 kmh 20.0 mph32.2 kmh 29.67 in1004.7 mb 0.00 in0.0 mm 0.00 in0.0 mm 0.00 in0.0 mm
04:55 AM 43.4°F6.3°C 41.8°F5.4°C 94% 17.0 mph 27.4 kmh 22.0 mph35.4 kmh 29.68 in1005.1 mb 0.00 in0.0 mm 0.00 in0.0 mm 0.00 in0.0 mm
04:50 AM 43.6°F6.4°C 42.0°F5.6°C 94% 15.0 mph 24.1 kmh 18.0 mph29.0 kmh 29.69 in1005.4 mb 0.00 in0.0 mm 0.00 in0.0 mm 0.00 in0.0 mm
04:45 AM 43.7°F6.5°C 42.1°F5.6°C 94% 15.0 mph NNE24.1 kmh NNE 20.0 mph32.2 kmh 29.69 in1005.4 mb 0.00 in0.0 mm 0.00 in0.0 mm 0.00 in0.0 mm
04:40 AM 43.7°F6.5°C 42.1°F5.6°C 94% 14.0 mph NNE22.5 kmh NNE 19.0 mph30.6 kmh 29.68 in1005.1 mb 0.00 in0.0 mm 0.00 in0.0 mm 0.00 in0.0 mm
04:35 AM 43.9°F6.6°C 42.3°F5.7°C 94% 14.0 mph NNE22.5 kmh NNE 19.0 mph30.6 kmh 29.69 in1005.4 mb 0.00 in0.0 mm 0.00 in0.0 mm 0.00 in0.0 mm
04:30 AM 43.9°F6.6°C 42.3°F5.7°C 94% 13.0 mph NNE20.9 kmh NNE 18.0 mph29.0 kmh 29.70 in1005.8 mb 0.00 in0.0 mm 0.00 in0.0 mm 0.00 in0.0 mm
04:25 AM 44.0°F6.7°C 42.4°F5.8°C 94% 13.0 mph NE20.9 kmh NE 18.0 mph29.0 kmh 29.69 in1005.4 mb 0.00 in0.0 mm 0.00 in0.0 mm 0.00 in0.0 mm
04:20 AM 44.1°F6.7°C 42.5°F5.8°C 94% 13.0 mph NE20.9 kmh NE 18.0 mph29.0 kmh 29.69 in1005.4 mb 0.00 in0.0 mm 0.00 in0.0 mm 0.00 in0.0 mm
04:15 AM 44.3°F6.8°C 42.7°F5.9°C 94% 13.0 mph NNE20.9 kmh NNE 18.0 mph29.0 kmh 29.69 in1005.4 mb 0.00 in0.0 mm 0.00 in0.0 mm 0.00 in0.0 mm
04:10 AM 44.4°F6.9°C 42.8°F6.0°C 94% 13.0 mph NNE20.9 kmh NNE 17.0 mph27.4 kmh 29.70 in1005.8 mb 0.00 in0.0 mm 0.00 in0.0 mm 0.00 in0.0 mm
04:05 AM 44.5°F6.9°C 42.9°F6.1°C 94% 12.0 mph NNE19.3 kmh NNE 18.0 mph29.0 kmh 29.70 in1005.8 mb 0.00 in0.0 mm 0.00 in0.0 mm 0.00 in0.0 mm
04:00 AM 44.5°F6.9°C 42.9°F6.1°C 94% 15.0 mph NNE24.1 kmh NNE 19.0 mph30.6 kmh 29.69 in1005.4 mb 0.00 in0.0 mm 0.00 in0.0 mm 0.00 in0.0 mm
03:55 AM 44.5°F6.9°C 42.9°F6.1°C 94% 12.0 mph NNE19.3 kmh NNE 18.0 mph29.0 kmh 29.70 in1005.8 mb 0.00 in0.0 mm 0.00 in0.0 mm 0.00 in0.0 mm
03:50 AM 44.6°F7.0°C 43.0°F6.1°C 94% 15.0 mph NNE24.1 kmh NNE 20.0 mph32.2 kmh 29.69 in1005.4 mb 0.00 in0.0 mm 0.00 in0.0 mm 0.00 in0.0 mm
03:45 AM 44.6°F7.0°C 43.0°F6.1°C 94% 14.0 mph NNE22.5 kmh NNE 19.0 mph30.6 kmh 29.70 in1005.8 mb 0.00 in0.0 mm 0.00 in0.0 mm 0.00 in0.0 mm
03:40 AM 44.5°F6.9°C 42.9°F6.1°C 94% 14.0 mph NNE22.5 kmh NNE 20.0 mph32.2 kmh 29.70 in1005.8 mb 0.00 in0.0 mm 0.00 in0.0 mm 0.00 in0.0 mm
03:35 AM 44.7°F7.1°C 43.1°F6.2°C 94% 14.0 mph NNE22.5 kmh NNE 19.0 mph30.6 kmh 29.69 in1005.4 mb 0.00 in0.0 mm 0.00 in0.0 mm 0.00 in0.0 mm
03:30 AM 44.8°F7.1°C 43.2°F6.2°C 94% 15.0 mph NNE24.1 kmh NNE 21.0 mph33.8 kmh 29.69 in1005.4 mb 0.00 in0.0 mm 0.00 in0.0 mm 0.00 in0.0 mm
03:25 AM 45.1°F7.3°C 43.5°F6.4°C 94% 15.0 mph NNE24.1 kmh NNE 20.0 mph32.2 kmh 29.69 in1005.4 mb 0.00 in0.0 mm 0.00 in0.0 mm 0.00 in0.0 mm
03:20 AM 45.0°F7.2°C 43.4°F6.3°C 94% 13.0 mph NNE20.9 kmh NNE 17.0 mph27.4 kmh 29.70 in1005.8 mb 0.00 in0.0 mm 0.00 in0.0 mm 0.00 in0.0 mm
03:15 AM 44.8°F7.1°C 43.2°F6.2°C 94% 13.0 mph NNE20.9 kmh NNE 17.0 mph27.4 kmh 29.70 in1005.8 mb 0.00 in0.0 mm 0.00 in0.0 mm 0.00 in0.0 mm
03:10 AM 44.9°F7.2°C 43.3°F6.3°C 94% 14.0 mph NE22.5 kmh NE 18.0 mph29.0 kmh 29.71 in1006.1 mb 0.00 in0.0 mm 0.00 in0.0 mm 0.00 in0.0 mm
03:05 AM 44.9°F7.2°C 43.3°F6.3°C 94% 13.0 mph NE20.9 kmh NE 19.0 mph30.6 kmh 29.71 in1006.1 mb 0.00 in0.0 mm 0.00 in0.0 mm 0.00 in0.0 mm
03:00 AM 44.8°F7.1°C 43.2°F6.2°C 94% 14.0 mph NE22.5 kmh NE 18.0 mph29.0 kmh 29.71 in1006.1 mb 0.00 in0.0 mm 0.00 in0.0 mm 0.00 in0.0 mm
02:55 AM 44.6°F7.0°C 43.0°F6.1°C 94% 14.0 mph NE22.5 kmh NE 19.0 mph30.6 kmh 29.71 in1006.1 mb 0.00 in0.0 mm 0.00 in0.0 mm 0.00 in0.0 mm
02:50 AM 44.5°F6.9°C 42.9°F6.1°C 94% 15.0 mph NE24.1 kmh NE 20.0 mph32.2 kmh 29.72 in1006.4 mb 0.00 in0.0 mm 0.00 in0.0 mm 0.00 in0.0 mm
02:45 AM 44.4°F6.9°C 42.8°F6.0°C 94% 16.0 mph NE25.7 kmh NE 20.0 mph32.2 kmh 29.72 in1006.4 mb 0.00 in0.0 mm 0.00 in0.0 mm 0.00 in0.0 mm
02:40 AM 44.3°F6.8°C 42.7°F5.9°C 94% 14.0 mph NE22.5 kmh NE 20.0 mph32.2 kmh 29.72 in1006.4 mb 0.00 in0.0 mm 0.00 in0.0 mm 0.00 in0.0 mm
02:35 AM 44.0°F6.7°C 42.4°F5.8°C 94% 16.0 mph NE25.7 kmh NE 19.0 mph30.6 kmh 29.72 in1006.4 mb 0.00 in0.0 mm 0.00 in0.0 mm 0.00 in0.0 mm
02:30 AM 43.8°F6.6°C 42.2°F5.7°C 94% 16.0 mph NE25.7 kmh NE 21.0 mph33.8 kmh 29.72 in1006.4 mb 0.00 in0.0 mm 0.00 in0.0 mm 0.00 in0.0 mm
02:25 AM 43.5°F6.4°C 41.9°F5.5°C 94% 17.0 mph NE27.4 kmh NE 22.0 mph35.4 kmh 29.73 in1006.8 mb 0.00 in0.0 mm 0.00 in0.0 mm 0.00 in0.0 mm
02:20 AM 43.3°F6.3°C 41.7°F5.4°C 94% 17.0 mph NE27.4 kmh NE 24.0 mph38.6 kmh 29.73 in1006.8 mb 0.00 in0.0 mm 0.00 in0.0 mm 0.00 in0.0 mm
02:15 AM 43.1°F6.2°C 41.5°F5.3°C 94% 16.0 mph NE25.7 kmh NE 21.0 mph33.8 kmh 29.74 in1007.1 mb 0.00 in0.0 mm 0.00 in0.0 mm 0.00 in0.0 mm
02:10 AM 42.7°F5.9°C 41.1°F5.1°C 94% 15.0 mph NE24.1 kmh NE 19.0 mph30.6 kmh 29.74 in1007.1 mb 0.00 in0.0 mm 0.00 in0.0 mm 0.00 in0.0 mm
02:05 AM 42.2°F5.7°C 40.6°F4.8°C 94% 15.0 mph NE24.1 kmh NE 21.0 mph33.8 kmh 29.75 in1007.5 mb 0.00 in0.0 mm 0.00 in0.0 mm 0.00 in0.0 mm
02:00 AM 41.8°F5.4°C 40.2°F4.6°C 94% 17.0 mph NE27.4 kmh NE 23.0 mph37.0 kmh 29.75 in1007.5 mb 0.00 in0.0 mm 0.00 in0.0 mm 0.00 in0.0 mm
01:55 AM 41.5°F5.3°C 39.9°F4.4°C 94% 18.0 mph NNE29.0 kmh NNE 25.0 mph40.2 kmh 29.76 in1007.8 mb 0.00 in0.0 mm 0.00 in0.0 mm 0.00 in0.0 mm
01:50 AM 41.4°F5.2°C 39.8°F4.3°C 94% 20.0 mph NNE32.2 kmh NNE 26.0 mph41.8 kmh 29.77 in1008.1 mb 0.00 in0.0 mm 0.00 in0.0 mm 0.00 in0.0 mm
01:45 AM 41.3°F5.2°C 39.4°F4.1°C 93% 19.0 mph 30.6 kmh 25.0 mph40.2 kmh 29.78 in1008.5 mb 0.00 in0.0 mm 0.00 in0.0 mm 0.00 in0.0 mm
01:40 AM 41.1°F5.1°C 39.2°F4.0°C 93% 21.0 mph NNE33.8 kmh NNE 29.0 mph46.7 kmh 29.78 in1008.5 mb 0.00 in0.0 mm 0.00 in0.0 mm 0.00 in0.0 mm
01:35 AM 41.1°F5.1°C 39.2°F4.0°C 93% 21.0 mph NNE33.8 kmh NNE 26.0 mph41.8 kmh 29.78 in1008.5 mb 0.00 in0.0 mm 0.00 in0.0 mm 0.00 in0.0 mm
01:30 AM 41.1°F5.1°C 39.2°F4.0°C 93% 19.0 mph NNE30.6 kmh NNE 25.0 mph40.2 kmh 29.79 in1008.8 mb 0.00 in0.0 mm 0.00 in0.0 mm 0.00 in0.0 mm
01:25 AM 41.0°F5.0°C 39.1°F3.9°C 93% 22.0 mph NNE35.4 kmh NNE 28.0 mph45.1 kmh 29.80 in1009.1 mb 0.00 in0.0 mm 0.00 in0.0 mm 0.00 in0.0 mm
01:20 AM 41.1°F5.1°C 39.2°F4.0°C 93% 23.0 mph 37.0 kmh 30.0 mph48.3 kmh 29.80 in1009.1 mb 0.00 in0.0 mm 0.00 in0.0 mm 0.00 in0.0 mm
01:15 AM 41.5°F5.3°C 39.6°F4.2°C 93% 23.0 mph 37.0 kmh 30.0 mph48.3 kmh 29.81 in1009.5 mb 0.00 in0.0 mm 0.00 in0.0 mm 0.00 in0.0 mm
01:10 AM 42.0°F5.6°C 40.1°F4.5°C 93% 22.0 mph 35.4 kmh 28.0 mph45.1 kmh 29.82 in1009.8 mb 0.00 in0.0 mm 0.00 in0.0 mm 0.00 in0.0 mm
01:05 AM 42.6°F5.9°C 40.7°F4.8°C 93% 22.0 mph 35.4 kmh 29.0 mph46.7 kmh 29.82 in1009.8 mb 0.00 in0.0 mm 0.00 in0.0 mm 0.00 in0.0 mm
01:00 AM 43.2°F6.2°C 41.3°F5.2°C 93% 22.0 mph 35.4 kmh 28.0 mph45.1 kmh 29.82 in1009.8 mb 0.00 in0.0 mm 0.00 in0.0 mm 0.00 in0.0 mm
12:55 AM 43.4°F6.3°C 41.5°F5.3°C 93% 21.0 mph 33.8 kmh 27.0 mph43.5 kmh 29.82 in1009.8 mb 0.00 in0.0 mm 0.00 in0.0 mm 0.00 in0.0 mm
12:50 AM 43.7°F6.5°C 41.8°F5.4°C 93% 22.0 mph 35.4 kmh 28.0 mph45.1 kmh 29.82 in1009.8 mb 0.00 in0.0 mm 0.00 in0.0 mm 0.00 in0.0 mm
12:45 AM 44.1°F6.7°C 42.2°F5.7°C 93% 22.0 mph 35.4 kmh 30.0 mph48.3 kmh 29.83 in1010.2 mb 0.00 in0.0 mm 0.00 in0.0 mm 0.00 in0.0 mm
12:40 AM 44.3°F6.8°C 42.4°F5.8°C 93% 20.0 mph 32.2 kmh 26.0 mph41.8 kmh 29.82 in1009.8 mb 0.00 in0.0 mm 0.00 in0.0 mm 0.00 in0.0 mm
12:35 AM 44.3°F6.8°C 42.4°F5.8°C 93% 21.0 mph 33.8 kmh 27.0 mph43.5 kmh 29.82 in1009.8 mb 0.00 in0.0 mm 0.00 in0.0 mm 0.00 in0.0 mm
12:30 AM 44.4°F6.9°C 42.5°F5.8°C 93% 22.0 mph 35.4 kmh 28.0 mph45.1 kmh 29.82 in1009.8 mb 0.00 in0.0 mm 0.00 in0.0 mm 0.00 in0.0 mm
12:25 AM 44.4°F6.9°C 42.5°F5.8°C 93% 22.0 mph 35.4 kmh 27.0 mph43.5 kmh 29.83 in1010.2 mb 0.00 in0.0 mm 0.00 in0.0 mm 0.00 in0.0 mm
12:20 AM 44.7°F7.1°C 42.8°F6.0°C 93% 21.0 mph NNE33.8 kmh NNE 28.0 mph45.1 kmh 29.83 in1010.2 mb 0.00 in0.0 mm 0.00 in0.0 mm 0.00 in0.0 mm
12:15 AM 44.7°F7.1°C 42.8°F6.0°C 93% 22.0 mph 35.4 kmh 28.0 mph45.1 kmh 29.83 in1010.2 mb 0.00 in0.0 mm 0.00 in0.0 mm 0.00 in0.0 mm
12:10 AM 44.8°F7.1°C 42.9°F6.1°C 93% 21.0 mph 33.8 kmh 27.0 mph43.5 kmh 29.83 in1010.2 mb 0.00 in0.0 mm 0.00 in0.0 mm 0.00 in0.0 mm
12:05 AM 44.9°F7.2°C 43.0°F6.1°C 93% 22.0 mph NNE35.4 kmh NNE 27.0 mph43.5 kmh 29.83 in1010.2 mb 0.00 in0.0 mm 0.00 in0.0 mm 0.00 in0.0 mm
12:00 AM 45.1°F7.3°C 43.2°F6.2°C 93% 20.0 mph NNE32.2 kmh NNE 26.0 mph41.8 kmh 29.83 in1010.2 mb 0.00 in0.0 mm 0.00 in0.0 mm 0.00 in0.0 mm